sensor_id;sensor_type;location;lat;lon;timestamp;P1;durP1;ratioP1;P2;durP2;ratioP2
52480;SDS011;38393;52.404;13.532;2022-08-25T00:01:27;5.78;;;4.25;;
52480;SDS011;38393;52.404;13.532;2022-08-25T00:03:54;6.97;;;4.35;;
52480;SDS011;38393;52.404;13.532;2022-08-25T00:06:21;6.78;;;4.50;;
52480;SDS011;38393;52.404;13.532;2022-08-25T00:08:47;7.22;;;4.20;;
52480;SDS011;38393;52.404;13.532;2022-08-25T00:11:15;6.18;;;4.22;;
52480;SDS011;38393;52.404;13.532;2022-08-25T00:13:41;7.50;;;4.13;;
52480;SDS011;38393;52.404;13.532;2022-08-25T00:16:09;7.60;;;4.43;;
52480;SDS011;38393;52.404;13.532;2022-08-25T00:18:36;10.40;;;4.72;;
52480;SDS011;38393;52.404;13.532;2022-08-25T00:21:03;6.70;;;4.18;;
52480;SDS011;38393;52.404;13.532;2022-08-25T00:23:29;7.30;;;4.43;;
52480;SDS011;38393;52.404;13.532;2022-08-25T00:25:55;6.50;;;4.38;;
52480;SDS011;38393;52.404;13.532;2022-08-25T00:28:21;6.53;;;4.60;;
52480;SDS011;38393;52.404;13.532;2022-08-25T00:30:47;7.10;;;3.85;;
52480;SDS011;38393;52.404;13.532;2022-08-25T00:33:13;8.55;;;4.72;;
52480;SDS011;38393;52.404;13.532;2022-08-25T00:35:40;8.30;;;4.60;;
52480;SDS011;38393;52.404;13.532;2022-08-25T00:38:07;7.43;;;4.40;;
52480;SDS011;38393;52.404;13.532;2022-08-25T00:40:33;6.32;;;4.53;;
52480;SDS011;38393;52.404;13.532;2022-08-25T00:42:59;7.85;;;4.45;;
52480;SDS011;38393;52.404;13.532;2022-08-25T00:45:25;6.80;;;4.68;;
52480;SDS011;38393;52.404;13.532;2022-08-25T00:47:51;9.75;;;4.88;;
52480;SDS011;38393;52.404;13.532;2022-08-25T00:50:17;11.00;;;4.75;;
52480;SDS011;38393;52.404;13.532;2022-08-25T00:52:46;9.57;;;4.60;;
52480;SDS011;38393;52.404;13.532;2022-08-25T00:55:19;7.63;;;4.47;;
52480;SDS011;38393;52.404;13.532;2022-08-25T00:57:47;6.47;;;4.60;;
52480;SDS011;38393;52.404;13.532;2022-08-25T01:00:16;8.88;;;4.78;;
52480;SDS011;38393;52.404;13.532;2022-08-25T01:02:43;7.55;;;4.68;;
52480;SDS011;38393;52.404;13.532;2022-08-25T01:05:09;9.52;;;4.30;;
52480;SDS011;38393;52.404;13.532;2022-08-25T01:07:36;8.27;;;4.78;;
52480;SDS011;38393;52.404;13.532;2022-08-25T01:10:02;7.03;;;4.78;;
52480;SDS011;38393;52.404;13.532;2022-08-25T01:12:29;6.38;;;4.55;;
52480;SDS011;38393;52.404;13.532;2022-08-25T01:14:55;8.40;;;4.43;;
52480;SDS011;38393;52.404;13.532;2022-08-25T01:17:22;8.20;;;4.60;;
52480;SDS011;38393;52.404;13.532;2022-08-25T01:19:51;9.68;;;4.10;;
52480;SDS011;38393;52.404;13.532;2022-08-25T01:22:19;7.68;;;4.53;;
52480;SDS011;38393;52.404;13.532;2022-08-25T01:25:01;6.47;;;4.35;;
52480;SDS011;38393;52.404;13.532;2022-08-25T01:27:28;8.60;;;4.53;;
52480;SDS011;38393;52.404;13.532;2022-08-25T01:29:54;6.53;;;4.32;;
52480;SDS011;38393;52.404;13.532;2022-08-25T01:32:21;7.28;;;4.22;;
52480;SDS011;38393;52.404;13.532;2022-08-25T01:34:47;10.27;;;5.00;;
52480;SDS011;38393;52.404;13.532;2022-08-25T01:37:14;7.97;;;4.55;;
52480;SDS011;38393;52.404;13.532;2022-08-25T01:39:40;6.20;;;4.30;;
52480;SDS011;38393;52.404;13.532;2022-08-25T01:44:38;7.30;;;4.95;;
52480;SDS011;38393;52.404;13.532;2022-08-25T01:47:05;9.38;;;4.50;;
52480;SDS011;38393;52.404;13.532;2022-08-25T01:49:31;9.02;;;4.70;;
52480;SDS011;38393;52.404;13.532;2022-08-25T01:51:59;8.40;;;4.65;;
52480;SDS011;38393;52.404;13.532;2022-08-25T01:54:25;8.52;;;4.82;;
52480;SDS011;38393;52.404;13.532;2022-08-25T01:56:51;8.48;;;4.97;;
52480;SDS011;38393;52.404;13.532;2022-08-25T01:59:18;8.80;;;4.47;;
52480;SDS011;38393;52.404;13.532;2022-08-25T02:01:44;7.55;;;5.07;;
52480;SDS011;38393;52.404;13.532;2022-08-25T02:04:10;6.80;;;4.68;;
52480;SDS011;38393;52.404;13.532;2022-08-25T02:06:36;7.15;;;4.93;;
52480;SDS011;38393;52.404;13.532;2022-08-25T02:09:07;9.07;;;4.82;;
52480;SDS011;38393;52.404;13.532;2022-08-25T02:11:34;11.00;;;5.30;;
52480;SDS011;38393;52.404;13.532;2022-08-25T02:14:00;8.27;;;4.65;;
52480;SDS011;38393;52.404;13.532;2022-08-25T02:16:27;10.15;;;5.03;;
52480;SDS011;38393;52.404;13.532;2022-08-25T02:18:54;8.15;;;5.20;;
52480;SDS011;38393;52.404;13.532;2022-08-25T02:21:22;7.47;;;4.63;;
52480;SDS011;38393;52.404;13.532;2022-08-25T02:23:48;11.50;;;4.78;;
52480;SDS011;38393;52.404;13.532;2022-08-25T02:26:14;8.43;;;4.80;;
52480;SDS011;38393;52.404;13.532;2022-08-25T02:28:42;8.95;;;5.50;;
52480;SDS011;38393;52.404;13.532;2022-08-25T02:31:08;9.02;;;4.93;;
52480;SDS011;38393;52.404;13.532;2022-08-25T02:33:34;6.70;;;4.90;;
52480;SDS011;38393;52.404;13.532;2022-08-25T02:36:01;9.73;;;5.63;;
52480;SDS011;38393;52.404;13.532;2022-08-25T02:38:27;7.47;;;5.45;;
52480;SDS011;38393;52.404;13.532;2022-08-25T02:40:54;8.05;;;5.13;;
52480;SDS011;38393;52.404;13.532;2022-08-25T02:43:21;8.82;;;5.18;;
52480;SDS011;38393;52.404;13.532;2022-08-25T02:45:47;9.18;;;5.43;;
52480;SDS011;38393;52.404;13.532;2022-08-25T02:48:13;6.68;;;4.70;;
52480;SDS011;38393;52.404;13.532;2022-08-25T02:50:39;8.48;;;5.60;;
52480;SDS011;38393;52.404;13.532;2022-08-25T02:53:07;7.53;;;5.38;;
52480;SDS011;38393;52.404;13.532;2022-08-25T02:55:32;10.57;;;5.43;;
52480;SDS011;38393;52.404;13.532;2022-08-25T02:57:58;9.65;;;5.10;;
52480;SDS011;38393;52.404;13.532;2022-08-25T03:00:24;7.18;;;4.85;;
52480;SDS011;38393;52.404;13.532;2022-08-25T03:02:50;13.23;;;5.63;;
52480;SDS011;38393;52.404;13.532;2022-08-25T03:05:16;8.57;;;5.50;;
52480;SDS011;38393;52.404;13.532;2022-08-25T03:07:42;9.07;;;5.15;;
52480;SDS011;38393;52.404;13.532;2022-08-25T03:10:10;9.48;;;5.82;;
52480;SDS011;38393;52.404;13.532;2022-08-25T03:12:36;8.20;;;5.25;;
52480;SDS011;38393;52.404;13.532;2022-08-25T03:15:03;10.57;;;5.53;;
52480;SDS011;38393;52.404;13.532;2022-08-25T03:17:30;7.70;;;5.05;;
52480;SDS011;38393;52.404;13.532;2022-08-25T03:19:56;10.80;;;5.60;;
52480;SDS011;38393;52.404;13.532;2022-08-25T03:22:22;8.27;;;5.50;;
52480;SDS011;38393;52.404;13.532;2022-08-25T03:24:48;8.98;;;5.57;;
52480;SDS011;38393;52.404;13.532;2022-08-25T03:27:14;8.73;;;5.38;;
52480;SDS011;38393;52.404;13.532;2022-08-25T03:29:39;9.13;;;5.50;;
52480;SDS011;38393;52.404;13.532;2022-08-25T03:32:07;7.75;;;5.60;;
52480;SDS011;38393;52.404;13.532;2022-08-25T03:34:33;9.25;;;5.43;;
52480;SDS011;38393;52.404;13.532;2022-08-25T03:36:59;10.73;;;5.35;;
52480;SDS011;38393;52.404;13.532;2022-08-25T03:39:25;11.43;;;6.43;;
52480;SDS011;38393;52.404;13.532;2022-08-25T03:41:52;11.52;;;6.22;;
52480;SDS011;38393;52.404;13.532;2022-08-25T03:44:18;10.55;;;5.80;;
52480;SDS011;38393;52.404;13.532;2022-08-25T03:46:46;9.15;;;5.88;;
52480;SDS011;38393;52.404;13.532;2022-08-25T03:49:13;10.60;;;5.60;;
52480;SDS011;38393;52.404;13.532;2022-08-25T03:51:40;9.52;;;6.22;;
52480;SDS011;38393;52.404;13.532;2022-08-25T03:54:07;9.75;;;6.18;;
52480;SDS011;38393;52.404;13.532;2022-08-25T03:56:34;9.63;;;5.53;;
52480;SDS011;38393;52.404;13.532;2022-08-25T03:59:00;11.95;;;5.80;;
52480;SDS011;38393;52.404;13.532;2022-08-25T04:01:26;8.95;;;6.22;;
52480;SDS011;38393;52.404;13.532;2022-08-25T04:03:53;11.30;;;5.90;;
52480;SDS011;38393;52.404;13.532;2022-08-25T04:06:19;8.18;;;5.63;;
52480;SDS011;38393;52.404;13.532;2022-08-25T04:08:45;12.73;;;6.30;;
52480;SDS011;38393;52.404;13.532;2022-08-25T04:11:12;13.45;;;7.47;;
52480;SDS011;38393;52.404;13.532;2022-08-25T04:13:39;17.23;;;7.20;;
52480;SDS011;38393;52.404;13.532;2022-08-25T04:16:13;10.77;;;6.43;;
52480;SDS011;38393;52.404;13.532;2022-08-25T04:18:39;12.32;;;6.18;;
52480;SDS011;38393;52.404;13.532;2022-08-25T04:21:05;9.18;;;5.93;;
52480;SDS011;38393;52.404;13.532;2022-08-25T04:23:36;10.45;;;6.10;;
52480;SDS011;38393;52.404;13.532;2022-08-25T04:26:13;11.70;;;6.18;;
52480;SDS011;38393;52.404;13.532;2022-08-25T04:28:39;11.32;;;6.13;;
52480;SDS011;38393;52.404;13.532;2022-08-25T04:31:08;10.73;;;5.97;;
52480;SDS011;38393;52.404;13.532;2022-08-25T04:33:35;9.70;;;6.10;;
52480;SDS011;38393;52.404;13.532;2022-08-25T04:36:02;13.52;;;6.63;;
52480;SDS011;38393;52.404;13.532;2022-08-25T04:38:28;11.38;;;6.28;;
52480;SDS011;38393;52.404;13.532;2022-08-25T04:40:55;9.68;;;6.15;;
52480;SDS011;38393;52.404;13.532;2022-08-25T04:43:21;9.07;;;6.40;;
52480;SDS011;38393;52.404;13.532;2022-08-25T04:45:47;12.27;;;6.45;;
52480;SDS011;38393;52.404;13.532;2022-08-25T04:48:13;11.15;;;6.70;;
52480;SDS011;38393;52.404;13.532;2022-08-25T04:50:39;11.25;;;6.15;;
52480;SDS011;38393;52.404;13.532;2022-08-25T04:53:05;15.68;;;7.05;;
52480;SDS011;38393;52.404;13.532;2022-08-25T04:55:31;11.00;;;6.00;;
52480;SDS011;38393;52.404;13.532;2022-08-25T04:57:57;12.73;;;5.93;;
52480;SDS011;38393;52.404;13.532;2022-08-25T05:00:23;14.80;;;6.75;;
52480;SDS011;38393;52.404;13.532;2022-08-25T05:02:49;10.23;;;5.95;;
52480;SDS011;38393;52.404;13.532;2022-08-25T05:05:15;10.57;;;6.07;;
52480;SDS011;38393;52.404;13.532;2022-08-25T05:07:41;10.20;;;6.53;;
52480;SDS011;38393;52.404;13.532;2022-08-25T05:10:07;19.00;;;7.13;;
52480;SDS011;38393;52.404;13.532;2022-08-25T05:12:33;12.57;;;6.53;;
52480;SDS011;38393;52.404;13.532;2022-08-25T05:14:59;11.82;;;7.07;;
52480;SDS011;38393;52.404;13.532;2022-08-25T05:17:45;11.27;;;6.60;;
52480;SDS011;38393;52.404;13.532;2022-08-25T05:20:11;10.93;;;7.20;;
52480;SDS011;38393;52.404;13.532;2022-08-25T05:22:37;13.80;;;7.10;;
52480;SDS011;38393;52.404;13.532;2022-08-25T05:25:03;11.55;;;7.07;;
52480;SDS011;38393;52.404;13.532;2022-08-25T05:27:29;12.90;;;6.50;;
52480;SDS011;38393;52.404;13.532;2022-08-25T05:29:55;11.50;;;7.32;;
52480;SDS011;38393;52.404;13.532;2022-08-25T05:32:21;12.45;;;6.95;;
52480;SDS011;38393;52.404;13.532;2022-08-25T05:34:47;12.38;;;7.15;;
52480;SDS011;38393;52.404;13.532;2022-08-25T05:37:13;13.90;;;7.13;;
52480;SDS011;38393;52.404;13.532;2022-08-25T05:39:38;12.85;;;7.22;;
52480;SDS011;38393;52.404;13.532;2022-08-25T05:42:04;14.90;;;7.80;;
52480;SDS011;38393;52.404;13.532;2022-08-25T05:44:30;15.40;;;8.18;;
52480;SDS011;38393;52.404;13.532;2022-08-25T05:46:56;15.40;;;8.40;;
52480;SDS011;38393;52.404;13.532;2022-08-25T05:49:22;27.77;;;8.43;;
52480;SDS011;38393;52.404;13.532;2022-08-25T05:51:48;18.30;;;8.68;;
52480;SDS011;38393;52.404;13.532;2022-08-25T05:54:14;21.30;;;8.85;;
52480;SDS011;38393;52.404;13.532;2022-08-25T05:56:40;19.00;;;8.98;;
52480;SDS011;38393;52.404;13.532;2022-08-25T05:59:06;17.83;;;9.27;;
52480;SDS011;38393;52.404;13.532;2022-08-25T06:01:32;20.67;;;9.30;;
52480;SDS011;38393;52.404;13.532;2022-08-25T06:04:16;17.83;;;9.55;;
52480;SDS011;38393;52.404;13.532;2022-08-25T06:06:44;19.27;;;9.48;;
52480;SDS011;38393;52.404;13.532;2022-08-25T06:09:10;20.55;;;9.48;;
52480;SDS011;38393;52.404;13.532;2022-08-25T06:11:37;21.02;;;9.93;;
52480;SDS011;38393;52.404;13.532;2022-08-25T06:14:04;19.58;;;9.93;;
52480;SDS011;38393;52.404;13.532;2022-08-25T06:16:30;20.67;;;10.00;;
52480;SDS011;38393;52.404;13.532;2022-08-25T06:18:56;21.67;;;10.25;;
52480;SDS011;38393;52.404;13.532;2022-08-25T06:21:22;22.65;;;10.27;;
52480;SDS011;38393;52.404;13.532;2022-08-25T06:23:48;23.88;;;10.32;;
52480;SDS011;38393;52.404;13.532;2022-08-25T06:26:14;20.52;;;10.05;;
52480;SDS011;38393;52.404;13.532;2022-08-25T06:28:40;19.13;;;10.13;;
52480;SDS011;38393;52.404;13.532;2022-08-25T06:31:07;24.48;;;11.93;;
52480;SDS011;38393;52.404;13.532;2022-08-25T06:33:33;22.08;;;11.10;;
52480;SDS011;38393;52.404;13.532;2022-08-25T06:35:59;19.23;;;9.20;;
52480;SDS011;38393;52.404;13.532;2022-08-25T06:38:25;21.90;;;10.95;;
52480;SDS011;38393;52.404;13.532;2022-08-25T06:40:52;19.60;;;10.60;;
52480;SDS011;38393;52.404;13.532;2022-08-25T06:43:18;21.17;;;10.65;;
52480;SDS011;38393;52.404;13.532;2022-08-25T06:45:45;23.13;;;11.10;;
52480;SDS011;38393;52.404;13.532;2022-08-25T06:48:11;19.33;;;10.20;;
52480;SDS011;38393;52.404;13.532;2022-08-25T06:50:37;20.95;;;10.38;;
52480;SDS011;38393;52.404;13.532;2022-08-25T06:53:04;20.83;;;10.57;;
52480;SDS011;38393;52.404;13.532;2022-08-25T06:55:30;19.67;;;9.80;;
52480;SDS011;38393;52.404;13.532;2022-08-25T06:57:56;25.15;;;10.27;;
52480;SDS011;38393;52.404;13.532;2022-08-25T07:00:22;19.77;;;10.85;;
52480;SDS011;38393;52.404;13.532;2022-08-25T07:02:47;19.83;;;9.63;;
52480;SDS011;38393;52.404;13.532;2022-08-25T07:05:13;24.00;;;11.07;;
52480;SDS011;38393;52.404;13.532;2022-08-25T07:07:40;20.63;;;10.73;;
52480;SDS011;38393;52.404;13.532;2022-08-25T07:10:08;22.00;;;11.05;;
52480;SDS011;38393;52.404;13.532;2022-08-25T07:12:34;23.75;;;10.13;;
52480;SDS011;38393;52.404;13.532;2022-08-25T07:15:00;19.90;;;10.32;;
52480;SDS011;38393;52.404;13.532;2022-08-25T07:17:26;19.70;;;10.15;;
52480;SDS011;38393;52.404;13.532;2022-08-25T07:19:52;16.63;;;8.85;;
52480;SDS011;38393;52.404;13.532;2022-08-25T07:22:18;17.20;;;9.02;;
52480;SDS011;38393;52.404;13.532;2022-08-25T07:24:45;20.13;;;10.50;;
52480;SDS011;38393;52.404;13.532;2022-08-25T07:27:11;16.58;;;9.55;;
52480;SDS011;38393;52.404;13.532;2022-08-25T07:29:37;17.83;;;8.98;;
52480;SDS011;38393;52.404;13.532;2022-08-25T07:32:03;16.20;;;8.43;;
52480;SDS011;38393;52.404;13.532;2022-08-25T07:34:30;14.95;;;8.23;;
52480;SDS011;38393;52.404;13.532;2022-08-25T07:37:14;16.35;;;8.82;;
52480;SDS011;38393;52.404;13.532;2022-08-25T07:39:40;13.82;;;8.43;;
52480;SDS011;38393;52.404;13.532;2022-08-25T07:42:07;17.10;;;9.50;;
52480;SDS011;38393;52.404;13.532;2022-08-25T07:44:33;19.17;;;8.65;;
52480;SDS011;38393;52.404;13.532;2022-08-25T07:46:59;16.52;;;8.38;;
52480;SDS011;38393;52.404;13.532;2022-08-25T07:49:25;15.80;;;8.68;;
52480;SDS011;38393;52.404;13.532;2022-08-25T07:51:52;17.55;;;8.60;;
52480;SDS011;38393;52.404;13.532;2022-08-25T07:54:18;14.07;;;7.82;;
52480;SDS011;38393;52.404;13.532;2022-08-25T07:56:44;15.38;;;8.65;;
52480;SDS011;38393;52.404;13.532;2022-08-25T07:59:10;14.80;;;8.02;;
52480;SDS011;38393;52.404;13.532;2022-08-25T08:01:36;15.07;;;8.57;;
52480;SDS011;38393;52.404;13.532;2022-08-25T08:04:02;17.17;;;9.15;;
52480;SDS011;38393;52.404;13.532;2022-08-25T08:06:29;15.95;;;8.70;;
52480;SDS011;38393;52.404;13.532;2022-08-25T08:08:55;14.30;;;8.40;;
52480;SDS011;38393;52.404;13.532;2022-08-25T08:11:28;12.20;;;7.68;;
52480;SDS011;38393;52.404;13.532;2022-08-25T08:13:55;16.90;;;8.60;;
52480;SDS011;38393;52.404;13.532;2022-08-25T08:16:23;15.10;;;8.35;;
52480;SDS011;38393;52.404;13.532;2022-08-25T08:18:49;14.27;;;8.63;;
52480;SDS011;38393;52.404;13.532;2022-08-25T08:21:17;13.93;;;8.05;;
52480;SDS011;38393;52.404;13.532;2022-08-25T08:23:43;14.80;;;8.20;;
52480;SDS011;38393;52.404;13.532;2022-08-25T08:26:09;15.90;;;8.25;;
52480;SDS011;38393;52.404;13.532;2022-08-25T08:28:35;12.27;;;7.55;;
52480;SDS011;38393;52.404;13.532;2022-08-25T08:31:01;13.00;;;7.68;;
52480;SDS011;38393;52.404;13.532;2022-08-25T08:33:28;12.48;;;7.55;;
52480;SDS011;38393;52.404;13.532;2022-08-25T08:35:56;12.38;;;7.20;;
52480;SDS011;38393;52.404;13.532;2022-08-25T08:38:22;12.32;;;6.95;;
52480;SDS011;38393;52.404;13.532;2022-08-25T08:41:35;13.13;;;6.78;;
52480;SDS011;38393;52.404;13.532;2022-08-25T08:44:00;10.20;;;6.30;;
52480;SDS011;38393;52.404;13.532;2022-08-25T08:46:32;10.23;;;6.28;;
52480;SDS011;38393;52.404;13.532;2022-08-25T08:49:02;13.05;;;6.47;;
52480;SDS011;38393;52.404;13.532;2022-08-25T08:51:30;11.02;;;6.63;;
52480;SDS011;38393;52.404;13.532;2022-08-25T08:56:25;11.05;;;5.97;;
52480;SDS011;38393;52.404;13.532;2022-08-25T08:58:59;12.68;;;6.22;;
52480;SDS011;38393;52.404;13.532;2022-08-25T09:01:39;12.90;;;6.65;;
52480;SDS011;38393;52.404;13.532;2022-08-25T09:04:08;8.52;;;5.75;;
52480;SDS011;38393;52.404;13.532;2022-08-25T09:06:37;9.43;;;5.90;;
52480;SDS011;38393;52.404;13.532;2022-08-25T09:09:04;9.73;;;5.85;;
52480;SDS011;38393;52.404;13.532;2022-08-25T09:11:45;7.88;;;5.60;;
52480;SDS011;38393;52.404;13.532;2022-08-25T09:14:24;8.25;;;5.13;;
52480;SDS011;38393;52.404;13.532;2022-08-25T09:27:34;8.52;;;5.60;;
52480;SDS011;38393;52.404;13.532;2022-08-25T09:32:29;10.32;;;6.72;;
52480;SDS011;38393;52.404;13.532;2022-08-25T09:34:56;8.02;;;4.85;;
52480;SDS011;38393;52.404;13.532;2022-08-25T09:37:23;6.88;;;4.55;;
52480;SDS011;38393;52.404;13.532;2022-08-25T09:39:49;7.78;;;5.32;;
52480;SDS011;38393;52.404;13.532;2022-08-25T09:42:17;8.45;;;5.22;;
52480;SDS011;38393;52.404;13.532;2022-08-25T09:44:43;11.05;;;4.78;;
52480;SDS011;38393;52.404;13.532;2022-08-25T09:47:23;7.82;;;4.72;;
52480;SDS011;38393;52.404;13.532;2022-08-25T09:49:50;6.57;;;4.65;;
52480;SDS011;38393;52.404;13.532;2022-08-25T09:54:53;7.03;;;4.90;;
52480;SDS011;38393;52.404;13.532;2022-08-25T09:57:27;9.15;;;5.18;;
52480;SDS011;38393;52.404;13.532;2022-08-25T09:59:53;10.93;;;4.50;;
52480;SDS011;38393;52.404;13.532;2022-08-25T10:02:24;8.05;;;4.75;;
52480;SDS011;38393;52.404;13.532;2022-08-25T10:04:50;6.93;;;4.97;;
52480;SDS011;38393;52.404;13.532;2022-08-25T10:07:24;7.38;;;4.45;;
52480;SDS011;38393;52.404;13.532;2022-08-25T10:09:52;8.07;;;4.55;;
52480;SDS011;38393;52.404;13.532;2022-08-25T10:12:20;6.25;;;4.53;;
52480;SDS011;38393;52.404;13.532;2022-08-25T10:14:48;6.80;;;4.60;;
52480;SDS011;38393;52.404;13.532;2022-08-25T10:17:24;7.47;;;4.85;;
52480;SDS011;38393;52.404;13.532;2022-08-25T10:20:15;7.03;;;4.85;;
52480;SDS011;38393;52.404;13.532;2022-08-25T10:22:39;9.68;;;6.20;;
52480;SDS011;38393;52.404;13.532;2022-08-25T10:25:06;9.55;;;6.25;;
52480;SDS011;38393;52.404;13.532;2022-08-25T10:27:46;10.63;;;6.63;;
52480;SDS011;38393;52.404;13.532;2022-08-25T10:33:14;11.75;;;6.13;;
52480;SDS011;38393;52.404;13.532;2022-08-25T10:35:46;11.73;;;7.05;;
52480;SDS011;38393;52.404;13.532;2022-08-25T10:38:22;9.95;;;6.28;;
52480;SDS011;38393;52.404;13.532;2022-08-25T10:41:00;12.15;;;6.65;;
52480;SDS011;38393;52.404;13.532;2022-08-25T10:46:15;9.80;;;5.43;;
52480;SDS011;38393;52.404;13.532;2022-08-25T10:54:04;9.27;;;4.65;;
52480;SDS011;38393;52.404;13.532;2022-08-25T10:56:35;7.53;;;4.68;;
52480;SDS011;38393;52.404;13.532;2022-08-25T11:02:02;7.68;;;4.90;;
52480;SDS011;38393;52.404;13.532;2022-08-25T11:09:33;8.23;;;4.10;;
52480;SDS011;38393;52.404;13.532;2022-08-25T11:12:12;7.15;;;4.28;;
52480;SDS011;38393;52.404;13.532;2022-08-25T11:14:47;5.88;;;3.83;;
52480;SDS011;38393;52.404;13.532;2022-08-25T11:17:24;8.32;;;3.90;;
52480;SDS011;38393;52.404;13.532;2022-08-25T11:19:51;6.57;;;4.10;;
52480;SDS011;38393;52.404;13.532;2022-08-25T11:22:22;8.98;;;5.13;;
52480;SDS011;38393;52.404;13.532;2022-08-25T11:24:54;8.13;;;4.22;;
52480;SDS011;38393;52.404;13.532;2022-08-25T11:27:22;8.55;;;4.43;;
52480;SDS011;38393;52.404;13.532;2022-08-25T11:29:53;10.38;;;4.47;;
52480;SDS011;38393;52.404;13.532;2022-08-25T11:32:19;6.53;;;3.75;;
52480;SDS011;38393;52.404;13.532;2022-08-25T11:34:48;9.18;;;4.80;;
52480;SDS011;38393;52.404;13.532;2022-08-25T11:37:19;8.02;;;4.57;;
52480;SDS011;38393;52.404;13.532;2022-08-25T11:42:25;7.25;;;4.18;;
52480;SDS011;38393;52.404;13.532;2022-08-25T11:47:43;9.63;;;4.20;;
52480;SDS011;38393;52.404;13.532;2022-08-25T11:50:26;9.13;;;4.65;;
52480;SDS011;38393;52.404;13.532;2022-08-25T11:52:53;7.53;;;4.45;;
52480;SDS011;38393;52.404;13.532;2022-08-25T11:57:47;9.60;;;4.82;;
52480;SDS011;38393;52.404;13.532;2022-08-25T12:02:45;9.50;;;4.55;;
52480;SDS011;38393;52.404;13.532;2022-08-25T12:11:17;10.95;;;4.70;;
52480;SDS011;38393;52.404;13.532;2022-08-25T12:16:03;6.30;;;4.22;;
52480;SDS011;38393;52.404;13.532;2022-08-25T12:23:27;6.75;;;4.78;;
52480;SDS011;38393;52.404;13.532;2022-08-25T12:25:53;6.72;;;4.05;;
52480;SDS011;38393;52.404;13.532;2022-08-25T12:31:08;9.40;;;4.63;;
52480;SDS011;38393;52.404;13.532;2022-08-25T12:33:56;11.20;;;4.25;;
52480;SDS011;38393;52.404;13.532;2022-08-25T12:36:28;5.57;;;3.78;;
52480;SDS011;38393;52.404;13.532;2022-08-25T12:38:55;7.07;;;4.22;;
52480;SDS011;38393;52.404;13.532;2022-08-25T12:41:32;8.60;;;4.38;;
52480;SDS011;38393;52.404;13.532;2022-08-25T12:44:18;6.88;;;4.03;;
52480;SDS011;38393;52.404;13.532;2022-08-25T12:49:38;12.20;;;4.60;;
52480;SDS011;38393;52.404;13.532;2022-08-25T12:52:11;7.90;;;4.80;;
52480;SDS011;38393;52.404;13.532;2022-08-25T12:54:45;6.32;;;3.95;;
52480;SDS011;38393;52.404;13.532;2022-08-25T12:59:48;7.43;;;4.47;;
52480;SDS011;38393;52.404;13.532;2022-08-25T13:15:59;8.23;;;4.85;;
52480;SDS011;38393;52.404;13.532;2022-08-25T13:21:00;5.70;;;3.70;;
52480;SDS011;38393;52.404;13.532;2022-08-25T13:23:28;8.25;;;4.03;;
52480;SDS011;38393;52.404;13.532;2022-08-25T13:25:54;6.00;;;3.90;;
52480;SDS011;38393;52.404;13.532;2022-08-25T13:28:31;7.10;;;4.43;;
52480;SDS011;38393;52.404;13.532;2022-08-25T13:31:03;7.10;;;4.35;;
52480;SDS011;38393;52.404;13.532;2022-08-25T13:33:30;6.55;;;3.70;;
52480;SDS011;38393;52.404;13.532;2022-08-25T13:35:57;5.93;;;3.63;;
52480;SDS011;38393;52.404;13.532;2022-08-25T13:38:43;10.48;;;4.15;;
52480;SDS011;38393;52.404;13.532;2022-08-25T13:41:09;6.75;;;4.40;;
52480;SDS011;38393;52.404;13.532;2022-08-25T13:43:36;6.05;;;4.18;;
52480;SDS011;38393;52.404;13.532;2022-08-25T13:46:03;9.05;;;4.20;;
52480;SDS011;38393;52.404;13.532;2022-08-25T13:48:39;9.32;;;4.65;;
52480;SDS011;38393;52.404;13.532;2022-08-25T13:51:15;8.25;;;4.22;;
52480;SDS011;38393;52.404;13.532;2022-08-25T13:53:46;8.15;;;4.47;;
52480;SDS011;38393;52.404;13.532;2022-08-25T13:56:12;8.10;;;4.68;;
52480;SDS011;38393;52.404;13.532;2022-08-25T13:58:47;7.00;;;4.35;;
52480;SDS011;38393;52.404;13.532;2022-08-25T14:01:18;7.32;;;4.25;;
52480;SDS011;38393;52.404;13.532;2022-08-25T14:03:46;8.70;;;4.32;;
52480;SDS011;38393;52.404;13.532;2022-08-25T14:08:45;10.13;;;4.65;;
52480;SDS011;38393;52.404;13.532;2022-08-25T14:11:13;6.75;;;3.90;;
52480;SDS011;38393;52.404;13.532;2022-08-25T14:13:41;7.05;;;4.85;;
52480;SDS011;38393;52.404;13.532;2022-08-25T14:18:33;6.55;;;4.10;;
52480;SDS011;38393;52.404;13.532;2022-08-25T14:21:00;7.13;;;4.18;;
52480;SDS011;38393;52.404;13.532;2022-08-25T14:23:34;14.52;;;5.00;;
52480;SDS011;38393;52.404;13.532;2022-08-25T14:26:00;6.10;;;4.47;;
52480;SDS011;38393;52.404;13.532;2022-08-25T14:28:26;6.80;;;4.75;;
52480;SDS011;38393;52.404;13.532;2022-08-25T14:30:54;10.10;;;4.43;;
52480;SDS011;38393;52.404;13.532;2022-08-25T14:33:22;14.80;;;4.85;;
52480;SDS011;38393;52.404;13.532;2022-08-25T14:35:50;11.82;;;5.00;;
52480;SDS011;38393;52.404;13.532;2022-08-25T14:38:16;10.43;;;5.15;;
52480;SDS011;38393;52.404;13.532;2022-08-25T14:40:43;6.28;;;4.22;;
52480;SDS011;38393;52.404;13.532;2022-08-25T14:43:10;8.35;;;4.85;;
52480;SDS011;38393;52.404;13.532;2022-08-25T14:45:36;9.57;;;5.55;;
52480;SDS011;38393;52.404;13.532;2022-08-25T14:48:04;8.10;;;4.50;;
52480;SDS011;38393;52.404;13.532;2022-08-25T14:50:32;6.97;;;4.47;;
52480;SDS011;38393;52.404;13.532;2022-08-25T14:52:59;5.40;;;4.10;;
52480;SDS011;38393;52.404;13.532;2022-08-25T14:55:25;8.88;;;4.60;;
52480;SDS011;38393;52.404;13.532;2022-08-25T14:57:51;13.20;;;4.65;;
52480;SDS011;38393;52.404;13.532;2022-08-25T15:00:17;4.97;;;3.80;;
52480;SDS011;38393;52.404;13.532;2022-08-25T15:02:43;7.10;;;3.40;;
52480;SDS011;38393;52.404;13.532;2022-08-25T15:05:10;5.65;;;3.63;;
52480;SDS011;38393;52.404;13.532;2022-08-25T15:07:37;5.30;;;3.50;;
52480;SDS011;38393;52.404;13.532;2022-08-25T15:10:21;5.25;;;3.90;;
52480;SDS011;38393;52.404;13.532;2022-08-25T15:12:48;7.85;;;3.85;;
52480;SDS011;38393;52.404;13.532;2022-08-25T15:15:14;6.20;;;3.80;;
52480;SDS011;38393;52.404;13.532;2022-08-25T15:17:40;8.45;;;4.53;;
52480;SDS011;38393;52.404;13.532;2022-08-25T15:20:07;9.20;;;3.90;;
52480;SDS011;38393;52.404;13.532;2022-08-25T15:22:33;7.22;;;4.03;;
52480;SDS011;38393;52.404;13.532;2022-08-25T15:24:59;8.52;;;3.97;;
52480;SDS011;38393;52.404;13.532;2022-08-25T15:27:25;4.68;;;3.40;;
52480;SDS011;38393;52.404;13.532;2022-08-25T15:29:51;9.05;;;4.15;;
52480;SDS011;38393;52.404;13.532;2022-08-25T15:32:17;5.95;;;3.67;;
52480;SDS011;38393;52.404;13.532;2022-08-25T15:34:43;7.65;;;3.85;;
52480;SDS011;38393;52.404;13.532;2022-08-25T15:37:10;8.70;;;3.58;;
52480;SDS011;38393;52.404;13.532;2022-08-25T15:39:37;5.45;;;3.50;;
52480;SDS011;38393;52.404;13.532;2022-08-25T15:42:03;5.82;;;3.45;;
52480;SDS011;38393;52.404;13.532;2022-08-25T15:44:30;9.55;;;4.10;;
52480;SDS011;38393;52.404;13.532;2022-08-25T15:46:56;8.60;;;4.10;;
52480;SDS011;38393;52.404;13.532;2022-08-25T15:49:22;9.25;;;3.67;;
52480;SDS011;38393;52.404;13.532;2022-08-25T15:51:49;9.40;;;4.28;;
52480;SDS011;38393;52.404;13.532;2022-08-25T15:54:16;8.85;;;4.07;;
52480;SDS011;38393;52.404;13.532;2022-08-25T15:56:42;8.35;;;3.92;;
52480;SDS011;38393;52.404;13.532;2022-08-25T15:59:08;9.98;;;3.53;;
52480;SDS011;38393;52.404;13.532;2022-08-25T16:01:34;7.97;;;3.75;;
52480;SDS011;38393;52.404;13.532;2022-08-25T16:04:01;5.78;;;3.25;;
52480;SDS011;38393;52.404;13.532;2022-08-25T16:06:27;8.68;;;3.17;;